Lausanne-Blecherette Airport


Codes: LSGL/QLS
Name: Lausanne-Blecherette Airport
City: Lausanne
Country: Switzerland
Elevation: 2041 ft.
Website:
Wikipedia:

Photos at Lausanne-Blecherette Airport


   Photos courtesy of SpottingLog. You can add your own sightings and photos by signing up for a free trial today.



No photos found.

Weather at Lausanne-Blecherette Airport


Time (UTC)DescriptionTempratureWindCloud coverageVisibilityPressureHumidity
19-Apr-2024 06:00Scattered Clouds1°C7 mph, SW37%10000m1024hPa78%
19-Apr-2024 09:00Broken Clouds4°C9 mph, SW75%10000m1023hPa65%
19-Apr-2024 12:00Overcast Clouds10°C13 mph, SW99%10000m1019hPa47%
19-Apr-2024 15:00Overcast Clouds11°C16 mph, SW100%10000m1017hPa52%
19-Apr-2024 18:00Light Rain8°C16 mph, SW100%10000m1016hPa73%
19-Apr-2024 21:00Moderate Rain6°C16 mph, SW100%4285m1017hPa93%
20-Apr-2024 00:00Light Rain5°C7 mph, W98%10000m1018hPa84%
20-Apr-2024 03:00Light Rain4°C7 mph, NW69%10000m1019hPa81%
20-Apr-2024 06:00Light Snow3°C7 mph, N68%10000m1020hPa73%
20-Apr-2024 09:00Broken Clouds5°C9 mph, NE60%10000m1021hPa54%
20-Apr-2024 12:00Light Rain7°C9 mph, N72%10000m1020hPa50%
20-Apr-2024 15:00Light Rain8°C9 mph, N82%10000m1020hPa54%
20-Apr-2024 18:00Light Rain5°C9 mph, N71%10000m1021hPa68%
20-Apr-2024 21:00Scattered Clouds3°C7 mph, N37%10000m1022hPa78%
21-Apr-2024 00:00Scattered Clouds3°C4 mph, NE49%10000m1021hPa78%
21-Apr-2024 03:00Light Snow2°C7 mph, N88%9003m1021hPa85%
21-Apr-2024 06:00Light Snow3°C9 mph, NE91%9355m1021hPa81%
21-Apr-2024 09:00Light Rain4°C13 mph, NE88%6542m1021hPa80%
21-Apr-2024 12:00Light Rain7°C20 mph, NE72%10000m1020hPa62%
21-Apr-2024 15:00Scattered Clouds7°C22 mph, NE40%10000m1019hPa57%
21-Apr-2024 18:00Light Rain6°C20 mph, NE29%10000m1019hPa72%
21-Apr-2024 21:00Clear Sky4°C16 mph, NE6%10000m1020hPa70%
22-Apr-2024 00:00Clear Sky3°C16 mph, NE3%10000m1021hPa74%
22-Apr-2024 03:00Clear Sky1°C16 mph, NE0%10000m1021hPa78%
22-Apr-2024 06:00Clear Sky1°C16 mph, NE0%10000m1022hPa71%
22-Apr-2024 09:00Few Clouds6°C18 mph, NE23%10000m1021hPa52%
22-Apr-2024 12:00Scattered Clouds8°C18 mph, NE25%10000m1020hPa44%
22-Apr-2024 15:00Scattered Clouds9°C13 mph, NE32%10000m1018hPa39%
22-Apr-2024 18:00Scattered Clouds6°C9 mph, NE46%10000m1019hPa56%
22-Apr-2024 21:00Scattered Clouds3°C7 mph, NE25%10000m1020hPa71%
23-Apr-2024 00:00Few Clouds2°C4 mph, NE18%10000m1019hPa75%
23-Apr-2024 03:00Clear Sky1°C2 mph, N5%10000m1018hPa77%
23-Apr-2024 06:00Clear Sky2°C2 mph, NW5%10000m1017hPa73%
23-Apr-2024 09:00Light Rain5°C4 mph, SW48%10000m1015hPa65%
23-Apr-2024 12:00Light Rain6°C4 mph, NW31%10000m1013hPa63%
23-Apr-2024 15:00Light Rain7°C7 mph, N86%10000m1011hPa54%
23-Apr-2024 18:00Light Rain4°C9 mph, NE93%10000m1012hPa80%
23-Apr-2024 21:00Overcast Clouds4°C9 mph, NE100%10000m1011hPa78%
24-Apr-2024 00:00Light Rain4°C11 mph, NE99%10000m1011hPa87%
24-Apr-2024 03:00Light Rain4°C13 mph, NE100%10000m1011hPa88%